Obrien Ridge

Elevation
7889ft
Aggregated by Synoptic Data
Date/Time Wind Direction Wind Speed knots Wind Gust knots RH % Accumulated Precip Inches Air Temp Fahrenheit
2024-07-23 11:22 ESE 2 9 34 14.19 76
2024-07-23 10:22 SE 3 8 37 14.19 71
2024-07-23 09:22 S 3 7 38 14.19 69
2024-07-23 08:22 S 2 5 42 14.19 64
2024-07-23 07:22 S 2 6 46 14.19 61
2024-07-23 06:22 SSW 2 8 43 14.19 61
2024-07-23 05:22 NNE 2 8 41 14.19 62
2024-07-23 04:22 SSE 1 7 41 14.19 63
2024-07-23 03:22 SSE 3 9 41 14.19 63
2024-07-23 02:22 SE 3 13 40 14.19 64
2024-07-23 01:22 ESE 8 13 38 14.19 64
2024-07-23 00:22 SE 5 10 36 14.19 66
2024-07-22 23:22 ESE 2 8 53 14.19 59
2024-07-22 22:22 ESE 3 7 70 14.19 56
2024-07-22 21:22 SE 1 5 53 14.1 63
2024-07-22 20:22 ESE 3 9 41 14.1 66
2024-07-22 19:22 ESE 3 13 42 14.1 67
2024-07-22 18:22 NE 2 6 32 14.1 72
2024-07-22 17:22 NW 2 8 27 14.1 80
2024-07-22 16:22 N 2 12 30 14.1 78
2024-07-22 15:22 WSW 2 10 29 14.1 77
2024-07-22 14:22 NW 3 10 24 14.1 82
2024-07-22 13:22 E 2 10 28 14.1 77
2024-07-22 12:22 SW 2 8 30 14.1 76
2024-07-22 11:22 NNW 2 8 29 14.1 75
2024-07-22 10:22 ESE 3 8 30 14.1 73
2024-07-22 09:22 SE 3 8 30 14.1 70
2024-07-22 08:22 ESE 4 9 33 14.1 66
2024-07-22 07:22 ESE 4 8 33 14.1 63
2024-07-22 06:22 SSE 1 4 37 14.1 59
2024-07-22 05:22 0 2 45 14.1 55
2024-07-22 04:22 0 2 45 14.1 55
2024-07-22 03:22 0 0 46 14.1 55
2024-07-22 02:22 0 0 44 14.1 56
2024-07-22 01:22 0 3 42 14.1 57
2024-07-22 00:22 0 3 39 14.1 58
2024-07-21 23:22 0 3 39 14.1 59
2024-07-21 22:22 0 5 35 14.1 63
2024-07-21 21:22 0 4 34 14.1 65
2024-07-21 20:22 0 6 28 14.1 70
2024-07-21 19:22 ESE 1 7 23 14.1 76
2024-07-21 18:22 0 6 21 14.1 80
2024-07-21 17:22 SSE 1 5 20 14.1 80
2024-07-21 16:22 NE 2 6 20 14.1 82
2024-07-21 15:22 SE 2 5 25 14.1 76
2024-07-21 14:22 E 3 10 22 14.1 80
2024-07-21 13:22 NE 2 8 21 14.1 77
2024-07-21 12:22 ESE 4 9 25 14.1 76
2024-07-21 11:22 ESE 5 12 27 14.1 73